Aeroporto :
LOGIN :

Iscrizione | Disclaimer

   EN    FR    IT 

 










Sommario :    VFR   VFR Marginale   IFR   IFR Intensivo   IFR Molto Intensivo
Visibilità : 
Base nubi : 
>= 8 km
>= 3000ft
5 / 8 km
1000 / 3000 ft
1500m / 5 km
500 / 1000 ft
800 / 1500m
200 / 500 ft
< 800m
< 200 ft
Simboli :   Temporali  Nebbia  Neve Forte  Precipitazioni Forti  Vento > 20 kt
SIGMETs :   Varie  Temporali  Ghiacco  Turbolenza  Onda orograficha  Ceneri Vulcaniche






- Altitudine del aeroporto : 268 ft
- Codice IATA : BFS


EGAA - Belfast Aldergrove

ULTIMO METAR :
  • 201720Z 08006KT 9999 BKN027 08/06 Q1003

METARs OBSOLETI :
  • 201650Z 11010KT 9999 BKN022 08/06 Q1003
  • 201620Z 12009KT 9999 FEW016 BKN022 08/07 Q1003
  • 201550Z 12011KT 5000 -RADZ SCT013 BKN020 08/07 Q1003
  • 201520Z 13010KT 7000 -RA SCT015 BKN020 09/07 Q1003
  • 201450Z 13010KT 9000 -RA SCT015 BKN020 09/08 Q1003

TAF TAF EGAA
Valido dal 20 a 12 ore il 21 a 12 ore UTC


201057Z 2012/2112 14013KT 9999 FEW018 SCT025
TEMPO 2012/2017 4000 -RADZ RA SCT008 BKN012
PROB40
TEMPO 2012/2112 13018G28KT
PROB30
TEMPO 2012/2016 BKN008
PROB40
TEMPO 2103/2112 BKN012



MetMap, La meteo Aeronautica in un colpo d'occhio ! - Copyright ORBIFLY Dicembre 2007 - Disclaimer

ORBIFLY MET'MAP TEAM :

Programmazione e sviluppo : Alexandra Zaïnal
Concezione e sviluppo : Baudouin d'Aumeries
Co-Programmazione e sviluppo : Marc-Olivier Méhu
Supporto tecnico e logistico : Manuel Goepfert
Aiuto per la traduzione : Arnaldo La Scala

Contatto : metmap@orbifly.com




FONTI E CREDITI :

   NOAA